createdAt,value
2019-05-09T00:00:24.641Z,14.50
2019-05-09T00:02:54.243Z,14.60
2019-05-09T00:05:25.445Z,14.50
2019-05-09T00:07:55.077Z,14.50
2019-05-09T00:10:38.511Z,14.50
2019-05-09T00:12:56.092Z,14.50
2019-05-09T00:15:25.970Z,14.50
2019-05-09T00:17:55.806Z,14.40
2019-05-09T00:20:36.133Z,14.40
2019-05-09T00:23:05.725Z,14.40
2019-05-09T00:25:35.713Z,14.40
2019-05-09T00:28:06.163Z,14.40
2019-05-09T00:30:55.179Z,14.30
2019-05-09T00:33:26.472Z,14.30
2019-05-09T00:35:56.060Z,14.30
2019-05-09T00:38:27.565Z,14.30
2019-05-09T00:40:59.034Z,14.30
2019-05-09T00:43:28.558Z,14.30
2019-05-09T00:46:00.437Z,14.20
2019-05-09T00:48:38.207Z,14.20
2019-05-09T00:51:07.922Z,14.20
2019-05-09T00:53:37.561Z,14.20
2019-05-09T00:56:07.430Z,14.20
2019-05-09T00:58:37.023Z,14.10
2019-05-09T01:01:06.623Z,14.10
2019-05-09T01:03:36.233Z,14.10
2019-05-09T01:06:05.823Z,14.10
2019-05-09T01:08:35.514Z,14.00
2019-05-09T01:11:11.984Z,14.00
2019-05-09T01:13:36.684Z,14.00
2019-05-09T01:16:06.557Z,14.00
2019-05-09T01:18:36.721Z,14.00
2019-05-09T01:21:06.310Z,14.00
2019-05-09T01:23:35.991Z,13.90
2019-05-09T01:26:05.643Z,13.90
2019-05-09T01:28:35.526Z,13.90
2019-05-09T01:31:05.136Z,13.90
2019-05-09T01:33:34.578Z,13.90
2019-05-09T01:36:04.331Z,13.90
2019-05-09T01:38:34.140Z,13.90
2019-05-09T01:41:04.167Z,13.80
2019-05-09T01:43:33.978Z,13.80
2019-05-09T01:46:03.950Z,13.80
2019-05-09T01:48:34.216Z,13.80
2019-05-09T01:51:04.171Z,13.80
2019-05-09T01:53:35.689Z,13.80
2019-05-09T01:56:05.916Z,13.80
2019-05-09T01:58:36.911Z,13.80
2019-05-09T02:01:08.094Z,13.80
2019-05-09T02:03:37.774Z,13.80
2019-05-09T02:06:07.669Z,13.80
2019-05-09T02:08:37.337Z,13.80
2019-05-09T02:11:06.941Z,13.80
2019-05-09T02:13:36.622Z,13.80
2019-05-09T02:16:10.929Z,13.80
2019-05-09T02:18:44.071Z,13.80
2019-05-09T02:21:14.506Z,13.80
2019-05-09T02:23:44.004Z,13.80
2019-05-09T02:26:13.799Z,13.80
2019-05-09T02:28:43.486Z,13.70
2019-05-09T02:31:16.372Z,13.70
2019-05-09T02:33:45.744Z,13.70
2019-05-09T02:36:18.689Z,13.60
2019-05-09T02:38:48.719Z,13.60
2019-05-09T02:41:19.567Z,13.60
2019-05-09T02:43:50.087Z,13.50
2019-05-09T02:46:19.489Z,13.50
2019-05-09T02:48:49.688Z,13.50
2019-05-09T02:51:19.451Z,13.50
2019-05-09T02:53:49.049Z,13.40
2019-05-09T02:56:19.148Z,13.40
2019-05-09T02:58:59.272Z,13.40
2019-05-09T03:01:39.093Z,13.40
2019-05-09T03:04:09.087Z,13.30
2019-05-09T03:06:39.146Z,13.30
2019-05-09T03:09:09.295Z,13.30
2019-05-09T03:11:39.146Z,13.20
2019-05-09T03:14:09.384Z,13.20
2019-05-09T03:16:40.111Z,13.20
2019-05-09T03:19:09.834Z,13.20
2019-05-09T03:21:41.081Z,13.20
2019-05-09T03:24:10.682Z,13.20
2019-05-09T03:26:41.917Z,13.20
2019-05-09T03:29:19.216Z,13.20
2019-05-09T03:40:34.618Z,13.10
2019-05-09T03:43:08.162Z,13.10
2019-05-09T03:45:45.074Z,13.00
2019-05-09T03:48:25.226Z,13.00
2019-05-09T03:50:54.918Z,13.00
2019-05-09T03:53:24.523Z,13.00
2019-05-09T03:55:57.619Z,12.90
2019-05-09T03:58:28.133Z,12.90
2019-05-09T04:00:58.100Z,12.90
2019-05-09T04:03:27.843Z,12.90
2019-05-09T04:06:02.708Z,12.90
2019-05-09T04:08:28.896Z,12.90
2019-05-09T04:10:58.863Z,12.90
2019-05-09T04:13:30.041Z,12.90
2019-05-09T04:15:59.739Z,12.90
2019-05-09T04:18:29.614Z,12.90
2019-05-09T04:20:59.216Z,12.90
2019-05-09T04:23:28.959Z,12.90
2019-05-09T04:26:17.497Z,12.90
2019-05-09T04:28:47.208Z,12.90
2019-05-09T04:31:17.766Z,12.90
2019-05-09T04:33:47.621Z,12.90
2019-05-09T04:36:18.350Z,12.90
2019-05-09T04:38:47.984Z,12.90
2019-05-09T04:41:23.665Z,12.90
2019-05-09T04:43:48.906Z,12.90
2019-05-09T04:46:24.126Z,12.90
2019-05-09T04:48:54.167Z,12.90
2019-05-09T04:51:21.325Z,12.90
2019-05-09T04:53:50.932Z,13.00
2019-05-09T04:56:24.722Z,13.00
2019-05-09T04:58:54.326Z,13.00
2019-05-09T05:01:23.680Z,13.00
2019-05-09T05:03:57.186Z,13.00
2019-05-09T05:06:28.076Z,13.10
2019-05-09T05:08:58.641Z,13.10
2019-05-09T05:11:28.758Z,13.10
2019-05-09T05:13:58.731Z,13.20
2019-05-09T05:16:28.477Z,13.20
2019-05-09T05:18:58.477Z,13.20
2019-05-09T05:21:28.672Z,13.30
2019-05-09T05:23:58.337Z,13.30
2019-05-09T05:26:27.927Z,13.40
2019-05-09T05:28:58.185Z,13.40
2019-05-09T05:31:28.501Z,13.40
2019-05-09T05:34:08.157Z,13.50
2019-05-09T05:36:38.371Z,13.50
2019-05-09T05:39:09.559Z,13.60
2019-05-09T05:41:39.179Z,13.60
2019-05-09T05:44:08.834Z,13.70
2019-05-09T05:46:38.313Z,13.70
2019-05-09T05:49:08.197Z,13.80
2019-05-09T05:51:49.590Z,13.90
2019-05-09T05:54:23.079Z,13.90
2019-05-09T05:56:52.933Z,14.00
2019-05-09T05:59:22.546Z,14.00
2019-05-09T06:01:52.399Z,14.10
2019-05-09T06:04:22.006Z,14.10
2019-05-09T06:06:51.677Z,14.20
2019-05-09T06:09:21.304Z,14.20
2019-05-09T06:11:50.889Z,14.30
2019-05-09T06:14:20.478Z,14.40
2019-05-09T06:16:50.093Z,14.40
2019-05-09T06:19:19.760Z,14.50
2019-05-09T06:21:52.421Z,14.50
2019-05-09T06:24:20.685Z,14.60
2019-05-09T06:26:50.271Z,14.60
2019-05-09T06:29:19.876Z,14.70
2019-05-09T06:31:49.564Z,14.70
2019-05-09T06:34:19.626Z,14.80
2019-05-09T06:36:49.322Z,14.80
2019-05-09T06:39:18.911Z,14.90
2019-05-09T06:41:48.712Z,15.00
2019-05-09T06:44:20.818Z,15.00
2019-05-09T06:46:52.520Z,15.00
2019-05-09T06:49:28.321Z,15.10
2019-05-09T06:51:54.274Z,15.10
2019-05-09T06:54:24.023Z,15.20
2019-05-09T06:56:53.647Z,15.30
2019-05-09T06:59:23.646Z,15.30
2019-05-09T07:02:01.123Z,15.40
2019-05-09T07:04:32.511Z,15.40
2019-05-09T07:07:09.584Z,15.40
2019-05-09T07:09:52.402Z,15.50
2019-05-09T07:12:22.033Z,15.50
2019-05-09T07:14:51.626Z,15.60
2019-05-09T07:17:21.298Z,15.70
2019-05-09T07:19:50.893Z,15.70
2019-05-09T07:22:39.946Z,15.80
2019-05-09T07:25:11.805Z,15.80
2019-05-09T07:27:43.032Z,15.90
2019-05-09T07:30:25.532Z,15.90
2019-05-09T07:33:03.353Z,16.00
2019-05-09T07:35:32.918Z,16.00
2019-05-09T07:38:02.508Z,16.00
2019-05-09T07:40:32.124Z,16.00
2019-05-09T07:43:04.079Z,16.10
2019-05-09T07:45:33.686Z,16.10
2019-05-09T07:48:03.365Z,16.20
2019-05-09T07:50:33.040Z,16.20
2019-05-09T07:53:02.915Z,16.20
2019-05-09T07:55:32.511Z,16.20
2019-05-09T07:58:02.138Z,16.30
2019-05-09T08:00:38.437Z,16.40
2019-05-09T08:03:12.124Z,16.40
2019-05-09T08:05:39.212Z,16.50
2019-05-09T08:08:13.393Z,16.50
2019-05-09T08:10:43.011Z,16.60
2019-05-09T08:13:12.686Z,16.70
2019-05-09T08:15:42.357Z,16.70
2019-05-09T08:18:11.947Z,16.80
2019-05-09T08:20:42.309Z,16.90
2019-05-09T08:23:11.979Z,17.00
2019-05-09T08:25:41.601Z,17.10
2019-05-09T08:28:11.450Z,17.20
2019-05-09T08:30:41.077Z,17.20
2019-05-09T08:33:10.666Z,17.30
2019-05-09T08:35:40.605Z,17.40
2019-05-09T08:38:10.464Z,17.50
2019-05-09T08:40:40.057Z,17.60
2019-05-09T08:43:09.681Z,17.70
2019-05-09T08:45:39.349Z,17.80
2019-05-09T08:48:09.589Z,18.00
2019-05-09T08:50:43.640Z,18.10
2019-05-09T08:53:13.236Z,18.30
2019-05-09T08:55:42.876Z,18.50
2019-05-09T08:58:12.477Z,18.70
2019-05-09T09:00:42.090Z,18.90
2019-05-09T09:03:11.699Z,19.00
2019-05-09T09:05:43.393Z,19.10
2019-05-09T09:08:12.617Z,19.20
2019-05-09T09:10:42.217Z,19.30
2019-05-09T09:13:11.844Z,19.30
2019-05-09T09:16:12.169Z,19.40
2019-05-09T09:18:12.939Z,19.40
2019-05-09T09:20:43.328Z,19.50
2019-05-09T09:23:13.604Z,19.50
2019-05-09T09:25:43.480Z,19.60
2019-05-09T09:28:13.148Z,19.60
2019-05-09T09:30:42.739Z,19.70
2019-05-09T09:33:13.924Z,19.80
2019-05-09T09:35:43.723Z,19.80
2019-05-09T09:38:13.319Z,19.90
2019-05-09T09:40:42.945Z,19.90
2019-05-09T09:43:12.629Z,19.90
2019-05-09T09:45:42.217Z,20.00
2019-05-09T09:48:11.916Z,20.00
2019-05-09T09:50:41.510Z,20.00
2019-05-09T09:53:11.114Z,20.10
2019-05-09T09:55:40.721Z,20.20
2019-05-09T09:58:10.333Z,20.20
2019-05-09T10:00:58.250Z,20.30
2019-05-09T10:03:28.321Z,20.40
2019-05-09T10:06:00.592Z,20.50
2019-05-09T10:08:30.269Z,20.60
2019-05-09T10:10:59.961Z,20.70
2019-05-09T10:13:29.636Z,20.80
2019-05-09T10:16:25.212Z,20.90
2019-05-09T10:18:51.237Z,21.00
2019-05-09T10:21:22.473Z,21.10
2019-05-09T10:23:52.356Z,21.20
2019-05-09T10:26:22.250Z,21.30
2019-05-09T10:28:51.851Z,21.40
2019-05-09T10:31:21.544Z,21.50
2019-05-09T10:33:51.162Z,21.60
2019-05-09T10:36:20.769Z,21.60
2019-05-09T10:38:50.571Z,21.70
2019-05-09T10:41:20.167Z,21.70
2019-05-09T10:44:08.294Z,21.70
2019-05-09T10:47:01.933Z,21.80
2019-05-09T10:49:29.306Z,21.80
2019-05-09T10:51:58.972Z,21.80
2019-05-09T10:54:28.596Z,21.90
2019-05-09T10:56:58.213Z,21.90
2019-05-09T10:59:28.134Z,22.00
2019-05-09T11:01:58.193Z,22.10
2019-05-09T11:04:28.760Z,22.10
2019-05-09T11:06:58.736Z,22.20
2019-05-09T11:09:29.262Z,22.10
2019-05-09T11:12:01.220Z,22.00
2019-05-09T11:14:36.974Z,21.90
2019-05-09T11:17:10.913Z,21.90
2019-05-09T11:19:33.113Z,21.70
2019-05-09T11:22:02.721Z,21.60
2019-05-09T11:24:45.440Z,21.40
2019-05-09T11:27:03.666Z,21.30
2019-05-09T11:29:33.269Z,21.10
2019-05-09T11:32:02.874Z,21.00
2019-05-09T11:34:32.738Z,20.80
2019-05-09T11:37:02.595Z,20.70
2019-05-09T11:39:39.715Z,20.60
2019-05-09T11:42:03.623Z,20.50
2019-05-09T11:44:33.213Z,20.40
2019-05-09T11:47:03.077Z,20.30
2019-05-09T11:49:32.864Z,20.20
2019-05-09T11:52:02.472Z,20.10
2019-05-09T11:54:32.086Z,20.10
2019-05-09T11:57:01.711Z,20.00
2019-05-09T11:59:31.676Z,20.00
2019-05-09T12:02:01.352Z,20.00
2019-05-09T12:04:30.977Z,20.10
2019-05-09T12:07:00.591Z,20.10
2019-05-09T12:09:30.225Z,20.20
2019-05-09T12:11:59.892Z,20.20
2019-05-09T12:14:29.517Z,20.10
2019-05-09T12:16:59.144Z,20.10
2019-05-09T12:19:29.619Z,20.00
2019-05-09T12:21:59.444Z,19.90
2019-05-09T12:24:29.718Z,19.80
2019-05-09T12:27:02.815Z,19.70
2019-05-09T12:29:30.883Z,19.60
2019-05-09T12:32:00.509Z,19.60
2019-05-09T12:34:30.195Z,19.50
2019-05-09T12:37:00.051Z,19.50
2019-05-09T12:39:29.650Z,19.50
2019-05-09T12:41:59.279Z,19.50
2019-05-09T12:44:29.074Z,19.50
2019-05-09T12:46:58.776Z,19.50
2019-05-09T12:49:28.815Z,19.50
2019-05-09T12:51:59.113Z,19.50
2019-05-09T12:54:29.296Z,19.50
2019-05-09T12:56:59.335Z,19.50
2019-05-09T12:59:44.510Z,19.60
2019-05-09T13:02:01.349Z,19.70
2019-05-09T13:04:31.067Z,19.70
2019-05-09T13:07:00.663Z,19.80
2019-05-09T13:09:30.272Z,19.80
2019-05-09T13:11:59.935Z,19.80
2019-05-09T13:14:29.554Z,19.90
2019-05-09T13:17:08.079Z,19.90
2019-05-09T13:19:47.762Z,19.90
2019-05-09T13:22:18.475Z,20.00
2019-05-09T13:24:47.970Z,20.00
2019-05-09T13:27:18.911Z,20.10
2019-05-09T13:29:49.607Z,20.10
2019-05-09T13:32:19.385Z,20.10
2019-05-09T13:34:49.240Z,20.20
2019-05-09T13:37:19.090Z,20.20
2019-05-09T13:39:48.822Z,20.30
2019-05-09T13:42:19.469Z,20.20
2019-05-09T13:44:49.726Z,20.40
2019-05-09T13:47:19.354Z,20.40
2019-05-09T13:49:48.996Z,20.50
2019-05-09T13:52:18.626Z,20.60
2019-05-09T13:54:48.507Z,20.70
2019-05-09T13:57:18.923Z,20.70
2019-05-09T13:59:48.874Z,20.80
2019-05-09T14:02:18.904Z,20.90
2019-05-09T14:04:48.934Z,21.00
2019-05-09T14:07:19.411Z,21.10
2019-05-09T14:09:49.469Z,21.30
2019-05-09T14:12:19.126Z,21.40
2019-05-09T14:14:48.740Z,21.50
2019-05-09T14:17:19.252Z,21.60
2019-05-09T14:19:51.155Z,21.80
2019-05-09T14:22:20.437Z,21.80
2019-05-09T14:24:50.023Z,21.80
2019-05-09T14:27:19.659Z,21.80
2019-05-09T14:29:49.856Z,21.80
2019-05-09T14:32:19.580Z,21.80
2019-05-09T14:34:49.201Z,21.70
2019-05-09T14:37:18.895Z,21.60
2019-05-09T14:39:58.063Z,21.60
2019-05-09T14:42:19.848Z,21.60
2019-05-09T14:44:49.465Z,21.60
2019-05-09T14:47:19.075Z,21.50
2019-05-09T14:49:50.300Z,21.50
2019-05-09T14:52:20.186Z,21.40
2019-05-09T14:54:49.827Z,21.40
2019-05-09T14:57:19.419Z,21.30
2019-05-09T14:59:49.105Z,21.30
2019-05-09T15:02:18.733Z,21.20
2019-05-09T15:04:48.641Z,21.10
2019-05-09T15:07:19.399Z,21.10
2019-05-09T15:09:49.249Z,21.10
2019-05-09T15:12:18.843Z,21.10
2019-05-09T15:14:48.568Z,21.10
2019-05-09T15:17:18.664Z,21.10
2019-05-09T15:19:59.370Z,21.20
2019-05-09T15:22:19.723Z,21.30
2019-05-09T15:24:49.458Z,21.30
2019-05-09T15:27:19.139Z,21.40
2019-05-09T15:29:48.794Z,21.40
2019-05-09T15:32:18.525Z,21.40
2019-05-09T15:34:48.099Z,21.40
2019-05-09T15:37:18.591Z,21.50
2019-05-09T15:39:48.645Z,21.50
2019-05-09T15:42:18.451Z,21.60
2019-05-09T15:44:48.157Z,21.60
2019-05-09T15:47:19.427Z,21.70
2019-05-09T15:49:49.507Z,21.70
2019-05-09T15:52:19.187Z,21.80
2019-05-09T15:54:48.765Z,21.80
2019-05-09T15:57:18.772Z,21.90
2019-05-09T15:59:48.383Z,21.90
2019-05-09T16:02:18.971Z,21.90
2019-05-09T16:04:49.138Z,21.90
2019-05-09T16:07:18.750Z,21.90
2019-05-09T16:09:48.680Z,21.80
2019-05-09T16:12:18.660Z,21.90
2019-05-09T16:14:48.727Z,21.90
2019-05-09T16:17:19.242Z,21.90
2019-05-09T16:19:48.925Z,22.00
2019-05-09T16:22:19.080Z,22.00
2019-05-09T16:24:50.372Z,22.00
2019-05-09T16:27:20.024Z,22.00
2019-05-09T16:29:49.897Z,22.10
2019-05-09T16:32:19.541Z,22.10
2019-05-09T16:34:49.139Z,22.20
2019-05-09T16:37:18.804Z,22.20
2019-05-09T16:39:48.406Z,22.20
2019-05-09T16:42:17.998Z,22.20
2019-05-09T16:44:48.222Z,22.20
2019-05-09T16:47:21.767Z,22.20
2019-05-09T16:49:49.347Z,22.20
2019-05-09T16:52:19.048Z,22.20
2019-05-09T16:54:50.341Z,22.30
2019-05-09T16:57:20.013Z,22.30
2019-05-09T16:59:49.633Z,22.30
2019-05-09T17:02:24.834Z,22.30
2019-05-09T17:04:50.713Z,22.40
2019-05-09T17:07:23.686Z,22.40
2019-05-09T17:09:53.357Z,22.50
2019-05-09T17:12:23.032Z,22.50
2019-05-09T17:14:53.001Z,22.60
2019-05-09T17:17:22.631Z,22.60
2019-05-09T17:19:52.502Z,22.70
2019-05-09T17:22:23.773Z,22.70
2019-05-09T17:24:53.380Z,22.70
2019-05-09T17:27:22.993Z,22.70
2019-05-09T17:29:52.610Z,22.60
2019-05-09T17:32:22.233Z,22.60
2019-05-09T17:34:52.099Z,22.60
2019-05-09T17:37:21.845Z,22.50
2019-05-09T17:39:51.551Z,22.50
2019-05-09T17:42:21.660Z,22.40
2019-05-09T17:44:51.288Z,22.40
2019-05-09T17:47:20.977Z,22.30
2019-05-09T17:49:50.607Z,22.10
2019-05-09T17:52:20.244Z,22.00
2019-05-09T17:54:50.016Z,21.90
2019-05-09T17:57:19.637Z,21.80
2019-05-09T17:59:49.396Z,21.70
2019-05-09T18:02:20.489Z,21.60
2019-05-09T18:04:50.126Z,21.50
2019-05-09T18:07:19.726Z,21.30
2019-05-09T18:09:51.956Z,21.20
2019-05-09T18:12:21.577Z,21.00
2019-05-09T18:14:51.442Z,20.90
2019-05-09T18:17:21.068Z,20.80
2019-05-09T18:19:50.670Z,20.70
2019-05-09T18:22:20.464Z,20.50
2019-05-09T18:24:50.081Z,20.40
2019-05-09T18:27:20.094Z,20.30
2019-05-09T18:29:49.815Z,20.20
2019-05-09T18:32:19.307Z,20.10
2019-05-09T18:34:48.882Z,20.00
2019-05-09T18:37:18.496Z,19.90
2019-05-09T18:39:48.531Z,19.80
2019-05-09T18:42:18.187Z,19.70
2019-05-09T18:44:47.785Z,19.60
2019-05-09T18:47:19.902Z,19.50
2019-05-09T18:49:51.145Z,19.40
2019-05-09T18:52:22.723Z,19.30
2019-05-09T18:54:52.289Z,19.30
2019-05-09T18:57:21.916Z,19.20
2019-05-09T18:59:51.525Z,19.10
2019-05-09T19:02:21.277Z,19.00
2019-05-09T19:04:51.199Z,18.90
2019-05-09T19:07:22.755Z,18.90
2019-05-09T19:09:52.156Z,18.80
2019-05-09T19:12:21.759Z,18.80
2019-05-09T19:14:51.623Z,18.70
2019-05-09T19:17:22.884Z,18.70
2019-05-09T19:20:10.042Z,18.60
2019-05-09T19:22:39.653Z,18.50
2019-05-09T19:25:09.563Z,18.50
2019-05-09T19:27:39.207Z,18.40
2019-05-09T19:30:09.044Z,18.40
2019-05-09T19:32:38.660Z,18.30
2019-05-09T19:35:09.211Z,18.30
2019-05-09T19:37:38.845Z,18.20
2019-05-09T19:40:09.015Z,18.20
2019-05-09T19:42:38.762Z,18.20
2019-05-09T19:45:09.289Z,18.10
2019-05-09T19:47:38.913Z,18.10
2019-05-09T19:50:09.242Z,18.10
2019-05-09T19:52:39.156Z,18.00
2019-05-09T19:55:09.108Z,18.00
2019-05-09T19:57:38.713Z,18.00
2019-05-09T20:00:09.677Z,18.00
2019-05-09T20:02:40.941Z,18.00
2019-05-09T20:05:11.067Z,18.00
2019-05-09T20:07:40.746Z,18.00
2019-05-09T20:10:11.715Z,17.90
2019-05-09T20:12:59.380Z,17.90
2019-05-09T20:15:29.296Z,17.90
2019-05-09T20:17:58.959Z,17.80
2019-05-09T20:20:28.822Z,17.80
2019-05-09T20:22:58.424Z,17.70
2019-05-09T20:25:28.050Z,17.70
2019-05-09T20:27:58.010Z,17.70
2019-05-09T20:30:27.632Z,17.60
2019-05-09T20:32:57.534Z,17.60
2019-05-09T20:35:27.432Z,17.60
2019-05-09T20:37:57.205Z,17.60
2019-05-09T20:40:27.159Z,17.50
2019-05-09T20:42:56.955Z,17.50
2019-05-09T20:45:26.753Z,17.50
2019-05-09T20:47:56.573Z,17.50
2019-05-09T20:50:26.427Z,17.40
2019-05-09T20:53:09.180Z,17.40
2019-05-09T20:55:27.796Z,17.40
2019-05-09T20:57:57.701Z,17.40
2019-05-09T21:00:27.479Z,17.40
2019-05-09T21:02:57.562Z,17.40
2019-05-09T21:05:27.408Z,17.40
2019-05-09T21:07:57.252Z,17.40
2019-05-09T21:10:27.156Z,17.40
2019-05-09T21:12:56.928Z,17.40
2019-05-09T21:15:26.799Z,17.40
2019-05-09T21:17:56.575Z,17.40
2019-05-09T21:20:26.477Z,17.40
2019-05-09T21:22:56.286Z,17.40
2019-05-09T21:25:26.087Z,17.40
2019-05-09T21:27:56.122Z,17.40
2019-05-09T21:30:26.357Z,17.30
2019-05-09T21:32:56.335Z,17.30
2019-05-09T21:35:26.542Z,17.30
2019-05-09T21:37:56.117Z,17.30
2019-05-09T21:40:26.159Z,17.20
2019-05-09T21:42:55.760Z,17.20
2019-05-09T21:45:25.355Z,17.10
2019-05-09T21:47:55.081Z,17.10
2019-05-09T21:50:24.681Z,17.10
2019-05-09T21:52:54.301Z,17.10
2019-05-09T21:55:24.256Z,17.00
2019-05-09T21:57:53.862Z,17.00
2019-05-09T22:00:32.277Z,17.00
2019-05-09T22:03:02.047Z,17.00
2019-05-09T22:05:31.706Z,16.90
2019-05-09T22:08:01.681Z,16.90
2019-05-09T22:10:31.365Z,16.90
2019-05-09T22:13:01.079Z,16.80
2019-05-09T22:15:30.903Z,16.80
2019-05-09T22:18:00.576Z,16.80
2019-05-09T22:20:30.198Z,16.60
2019-05-09T22:22:59.888Z,16.60
2019-05-09T22:25:29.512Z,16.50
2019-05-09T22:27:59.373Z,16.40
2019-05-09T22:30:29.057Z,16.30
2019-05-09T22:32:58.669Z,16.20
2019-05-09T22:35:28.729Z,16.10
2019-05-09T22:37:58.339Z,16.00
2019-05-09T22:40:29.475Z,15.90
2019-05-09T22:42:59.202Z,15.80
2019-05-09T22:45:29.125Z,15.70
2019-05-09T22:47:58.723Z,15.70
2019-05-09T22:50:28.332Z,15.60
2019-05-09T22:52:58.022Z,15.50
2019-05-09T22:55:28.011Z,15.40
2019-05-09T22:57:57.903Z,15.30
2019-05-09T23:00:27.530Z,15.30
2019-05-09T23:02:57.129Z,15.20
2019-05-09T23:05:27.007Z,15.20
2019-05-09T23:07:56.697Z,15.10
2019-05-09T23:10:26.685Z,15.10
2019-05-09T23:12:56.295Z,15.00
2019-05-09T23:15:26.053Z,15.10
2019-05-09T23:17:55.684Z,15.00
2019-05-09T23:20:42.899Z,15.00
2019-05-09T23:23:32.243Z,15.00
2019-05-09T23:26:01.840Z,15.00
2019-05-09T23:28:31.442Z,15.00
2019-05-09T23:31:02.779Z,15.00
2019-05-09T23:33:34.270Z,15.00
2019-05-09T23:36:04.219Z,15.00
2019-05-09T23:38:33.814Z,15.00
2019-05-09T23:41:03.414Z,15.00
2019-05-09T23:43:33.088Z,14.90
2019-05-09T23:46:02.696Z,14.90
2019-05-09T23:48:32.695Z,15.00
2019-05-09T23:51:02.312Z,14.90
2019-05-09T23:53:36.449Z,14.90
2019-05-09T23:56:23.942Z,14.90
2019-05-09T23:59:10.922Z,14.90
